Station: PADTHAWAY SOUTH

  Atmospheric Gas Attenuation - ITU Rec 676-11   --------------- db/100km ---------------
Date Time Temp RH % AH g/m3 Dew Point Wind Direction Speed kph Gust kph Barometer mB Rainfall Since 9am 24GHz 47GHz 76GHz 122GHz 134GHz 241GHz
03 08:10 13.9 69 8.27 8.3 9 9 1013.1 0 18.9 25.3 38.4 100.8 93.9 322.9
03 08:00 13.2 73 8.38 8.5 6 9 1013.1 0 19.1 25.7 39.2 102.9 96.2 330.8
03 07:50 12.1 77 8.26 8.2 6 7 1013.1 0 18.9 25.8 39.3 103.0 96.0 329.9
03 07:40 11.3 80 8.16 8 7 7 1013.1 0 18.8 25.9 39.3 103.0 95.7 328.6
03 07:30 10.5 83 8.05 7.7 7 9 1013.1 0 18.6 26.0 39.2 102.8 95.2 326.7
03 07:20 10 84 7.9 7.4 6 7 1013.1 0 18.3 25.8 38.8 101.8 93.7 321.7
03 07:10 9.7 85 7.84 7.3 6 6 1013.1 0 18.2 25.8 38.7 101.6 93.3 320.1
03 07:00 9.4 86 7.78 7.2 6 7 1013.1 0 18.0 25.8 38.6 101.3 92.8 318.4
03 06:50 9.2 87 7.77 7.2 6 7 1013.1 0 18.0 25.9 38.7 101.4 92.9 318.8
03 06:40 8.8 89 7.75 7.1 7 7 1013.1 0 18.0 25.9 38.8 101.7 93.2 319.4
03 06:30 8.2 89 7.46 6.5 4 7 1013.1 0 17.4 25.6 37.9 99.3 89.9 308.0
03 06:20 7.9 89 7.31 6.2 7 7 1013.1 0 17.1 25.5 37.4 98.0 88.2 302.0
03 06:10 8.2 89 7.46 6.5 6 6 1013.1 0 17.4 25.6 37.9 99.3 89.9 308.0
03 06:00 8.3 91 7.67 6.9 0 0 1013.1 0 17.8 26.0 38.7 101.5 92.7 317.6
03 05:50 8.6 93 7.99 7.5 0 0 1013.1 0 18.5 26.4 39.9 104.7 96.7 331.9
03 05:40 8.3 93 7.84 7.2 0 0 1013.1 0 18.2 26.2 39.4 103.4 95.0 325.9
03 05:30 8 93 7.69 6.9 0 6 1013.1 0 17.9 26.1 38.9 102.1 93.3 319.8
03 05:20 8 93 7.69 6.9 6 6 1013.1 0 17.9 26.1 38.9 102.1 93.3 319.8
03 05:00 7.1 90 7.02 5.6 0 0 1013.1 0 16.5 25.2 36.6 95.8 85.1 291.1
03 04:50 7.2 90 7.07 5.7 0 0 1013.1 0 16.6 25.3 36.7 96.2 85.7 293.2
03 04:40 7.2 90 7.07 5.7 6 6 1013.1 0 16.6 25.3 36.7 96.2 85.7 293.2
03 04:30 7.4 89 7.08 5.7 9 9 1013.1 0 16.6 25.2 36.7 96.1 85.6 292.9
03 04:20 7.5 90 7.21 6 7 9 1013.1 0 16.9 25.4 37.2 97.4 87.3 298.7
03 04:10 7.5 91 7.29 6.1 7 9 1013.1 0 17.1 25.6 37.5 98.3 88.4 302.6
03 04:00 7.2 90 7.07 5.7 6 7 1013.1 0 16.6 25.3 36.7 96.2 85.7 293.2
03 03:50 7.3 90 7.11 5.8 7 7 1013.1 0 16.7 25.3 36.9 96.5 86.1 294.7
03 03:40 7.4 90 7.16 5.9 6 7 1013.1 0 16.8 25.4 37.0 97.0 86.7 296.7
03 03:30 7.5 90 7.21 6 6 6 1013.1 0 16.9 25.4 37.2 97.4 87.3 298.7
03 03:20 7.6 89 7.17 5.9 0 0 1013.1 0 16.8 25.3 37.0 96.8 86.6 296.4
03 03:10 7.4 88 7 5.5 0 0 1013.1 0 16.4 25.1 36.4 95.2 84.5 289.1
03 03:00 7.7 88 7.14 5.8 0 0 1013.1 0 16.7 25.2 36.8 96.4 86.1 294.6
03 02:50 7.9 88 7.23 6 0 0 1013.1 0 16.9 25.3 37.1 97.1 87.1 298.1
03 02:40 8.1 89 7.41 6.4 0 0 1013.1 0 17.3 25.6 37.7 98.9 89.3 306.0
03 02:30 8.3 89 7.5 6.6 0 0 1013.1 0 17.5 25.7 38.0 99.6 90.3 309.5
03 02:20 8.5 87 7.43 6.5 0 0 1013.1 0 17.3 25.5 37.6 98.6 89.1 305.4
03 02:10 8.5 88 7.52 6.6 0 0 1013.1 0 17.5 25.7 38.0 99.6 90.4 309.6
03 02:00 8.7 88 7.61 6.8 0 4 1013.1 0 17.7 25.7 38.3 100.3 91.4 313.1
03 01:50 8.6 87 7.48 6.6 2 6 1013.1 0 17.4 25.6 37.8 99.0 89.7 307.3
03 01:40 8.6 86 7.39 6.4 6 6 1013.1 0 17.2 25.4 37.4 98.0 88.5 303.1
03 01:30 8.7 85 7.35 6.3 6 7 1013.1 0 17.1 25.3 37.2 97.5 87.8 300.8
03 01:20 8.7 85 7.35 6.3 7 7 1013.1 0 17.1 25.3 37.2 97.5 87.8 300.8
03 01:10 9 84 7.41 6.4 7 7 1013.1 0 17.3 25.3 37.3 97.7 88.3 302.5
03 01:00 9.2 84 7.5 6.6 7 7 1013.1 0 17.4 25.4 37.6 98.5 89.3 305.9
03 00:50 9.6 84 7.7 7 7 7 1013.1 0 17.9 25.6 38.2 100.2 91.5 313.8
03 00:40 9.8 82 7.61 6.9 0 0 1013.1 0 17.7 25.4 37.7 98.9 90.1 308.8
03 00:30 10.4 83 8 7.6 0 0 1013.1 0 18.5 25.9 39.0 102.4 94.6 324.8
03 00:20 10.6 81 7.91 7.5 0 0 1013.1 0 18.3 25.7 38.6 101.2 93.1 319.7
03 00:10 11.1 81 8.16 8 0 0 1013.1 0 18.8 26.0 39.4 103.2 95.9 329.4
03 00:00 11.3 78 7.96 7.6 0 0 1013.1 0 18.3 25.6 38.4 100.8 93.0 319.2
02 23:50 11.4 79 8.11 7.9 0 0 1013.1 0 18.7 25.8 39.0 102.3 94.9 325.8
02 23:40 11.3 81 8.26 8.2 0 0 1013.1 0 19.0 26.1 39.7 104.1 97.0 333.3
02 23:30 11.5 80 8.26 8.2 4 6 1013.1 0 19.0 26.0 39.6 103.8 96.8 332.4
02 23:20 11.2 78 7.91 7.5 6 6 1013.1 0 18.2 25.5 38.3 100.4 92.4 317.2
02 23:10 11.3 76 7.75 7.2 2 6 1013.1 0 17.9 25.2 37.6 98.5 90.2 309.4
02 23:00 11 78 7.81 7.3 2 6 1013.1 0 18.0 25.4 38.0 99.6 91.3 313.4
02 22:50 10.9 77 7.66 7 6 6 1013.1 0 17.7 25.2 37.4 98.1 89.5 306.8
02 22:40 10.6 78 7.61 6.9 7 7 1013.1 0 17.6 25.2 37.4 97.9 89.1 305.6
02 22:30 10.6 77 7.52 6.7 7 9 1013.1 0 17.4 25.1 37.0 96.9 87.9 301.4
02 22:20 11.1 72 7.25 6.3 7 7 1013.1 0 16.8 24.5 35.7 93.5 83.8 287.2
02 22:10 11.4 71 7.29 6.3 7 7 1013.1 0 16.9 24.5 35.7 93.5 84.0 287.9
02 22:00 11.7 70 7.32 6.4 7 11 1013.1 0 16.9 24.4 35.7 93.5 84.1 288.2
02 21:50 11.7 70 7.32 6.4 9 11 1013.1 0 16.9 24.4 35.7 93.5 84.1 288.2
02 21:40 12 69 7.35 6.5 9 11 1013.1 0 17.0 24.4 35.7 93.4 84.2 288.4
02 21:30 12.3 67 7.28 6.4 9 15 1013.1 0 16.8 24.2 35.3 92.4 82.9 284.2
02 21:20 12.7 65 7.24 6.3 11 13 1013.1 0 16.7 24.0 34.9 91.5 82.0 281.0
02 21:10 12.9 64 7.21 6.3 11 15 1013.1 0 16.7 23.9 34.7 90.9 81.4 278.9
02 21:00 13.3 61 7.05 5.9 17 24 1013.1 0 16.3 23.6 34.0 88.9 79.0 270.5
02 20:50 13.5 60 7.02 5.9 19 20 1013.1 0 16.2 23.5 33.8 88.3 78.4 268.5
02 20:40 13.7 60 7.11 6.1 13 19 1013.1 0 16.4 23.6 34.0 89.0 79.3 271.7
02 20:30 13.9 60 7.19 6.3 17 24 1013.1 0 16.6 23.6 34.2 89.6 80.1 274.6
02 20:20 14.3 58 7.13 6.2 17 22 1013.1 0 16.4 23.4 33.8 88.6 79.0 270.6
02 20:10 14.4 58 7.17 6.3 20 26 1013.1 0 16.5 23.5 34.0 88.9 79.4 272.0
02 20:00 14.8 56 7.09 6.1 20 32 1013.1 0 16.3 23.3 33.5 87.6 78.0 267.2
02 19:50 15.3 53 6.92 5.8 26 32 1013.1 0 15.9 22.9 32.7 85.4 75.4 258.2
02 19:40 15.7 53 7.09 6.2 20 28 1013.1 0 16.3 23.0 33.1 86.6 77.1 264.2
02 19:30 16.3 52 7.21 6.4 20 35 1013.1 0 16.5 23.1 33.3 87.2 78.0 267.3
02 19:20 16.5 51 7.16 6.3 24 30 1013.1 0 16.4 22.9 33.0 86.5 77.2 264.5
02 19:10 17 51 7.38 6.8 20 32 1013.1 0 16.9 23.1 33.6 88.1 79.4 272.2
02 19:00 17.1 51 7.42 6.9 24 32 1013.1 0 16.9 23.2 33.8 88.4 79.7 273.5
02 18:50 17.5 49 7.3 6.7 24 28 1013.1 0 16.7 22.9 33.2 86.7 77.9 267.1
02 18:40 17.6 50 7.5 7.1 28 35 1013.1 0 17.1 23.2 33.8 88.6 80.2 275.2
02 18:30 18.3 49 7.66 7.4 22 32 1013.1 0 17.4 23.2 34.1 89.4 81.4 279.5
02 18:20 18.2 49 7.62 7.3 24 28 1013.1 0 17.3 23.2 34.0 89.1 81.0 278.2
02 18:10 18.5 49 7.75 7.6 26 35 1013.1 0 17.6 23.3 34.4 90.0 82.3 282.6
02 18:00 19.1 47 7.7 7.5 24 37 1013.1 0 17.4 23.1 33.9 88.9 81.1 278.5
02 17:50 19.2 45 7.42 7 22 30 1013.1 0 16.8 22.6 32.9 86.1 77.7 266.5
02 17:40 19.3 47 7.8 7.7 22 32 1013.1 0 17.6 23.2 34.2 89.6 82.1 281.9
02 17:30 19.4 47 7.84 7.8 26 37 1013.1 0 17.7 23.2 34.3 89.9 82.4 283.3
02 17:20 19.6 47 7.93 8 30 37 1013.1 0 17.9 23.3 34.6 90.5 83.3 286.3
02 17:10 19.9 46 7.9 7.9 22 30 1013.1 0 17.8 23.2 34.3 89.9 82.6 284.0
02 17:00 20.5 46 8.18 8.5 26 37 1013.1 0 18.4 23.4 35.1 91.9 85.3 293.5
02 16:50 20.4 47 8.31 8.7 30 39 1013.1 0 18.7 23.6 35.6 93.3 87.0 299.3
02 16:40 21.6 44 8.34 8.8 24 30 1013.1 0 18.7 23.4 35.2 92.2 86.0 296.1
02 16:30 21.5 45 8.48 9.1 26 41 1013.1 0 19.0 23.6 35.7 93.7 87.8 302.3
02 16:20 22 43 8.34 8.9 26 32 1013.1 0 18.7 23.3 35.0 91.8 85.6 294.7
02 16:10 22.9 42 8.58 9.3 22 33 1013.1 0 19.1 23.4 35.5 93.0 87.4 301.2
02 16:00 22.8 43 8.74 9.6 24 39 1013.1 0 19.5 23.6 36.1 94.7 89.4 308.1
02 15:50 23.6 41 8.72 9.6 24 35 1013.1 0 19.4 23.4 35.7 93.5 88.3 304.3
02 15:40 24.1 38 8.31 8.9 26 30 1013.1 0 18.5 22.7 34.0 89.2 83.0 286.0
02 15:30 24.2 40 8.8 9.8 20 37 1013.1 0 19.5 23.4 35.7 93.6 88.6 305.3

Last Refresh: 03-Dec-2021 08:26:18

Bureau of Meteorology